createdAt,value
2023-04-18T00:01:25.995Z,9.88
2023-04-18T00:03:53.774Z,11.57
2023-04-18T00:06:22.330Z,11.75
2023-04-18T00:08:49.425Z,10.77
2023-04-18T00:11:16.474Z,11.20
2023-04-18T00:13:44.509Z,11.88
2023-04-18T00:16:13.381Z,11.93
2023-04-18T00:18:40.769Z,12.27
2023-04-18T00:21:08.809Z,12.57
2023-04-18T00:23:36.196Z,12.07
2023-04-18T00:26:03.526Z,11.55
2023-04-18T00:28:30.450Z,12.63
2023-04-18T00:30:57.498Z,12.10
2023-04-18T00:33:24.462Z,11.50
2023-04-18T00:35:52.665Z,11.15
2023-04-18T00:38:19.535Z,12.07
2023-04-18T00:40:48.433Z,11.68
2023-04-18T00:43:17.023Z,11.45
2023-04-18T00:45:44.733Z,10.32
2023-04-18T00:48:11.966Z,12.20
2023-04-18T00:50:40.708Z,12.23
2023-04-18T00:53:10.621Z,10.80
2023-04-18T00:55:38.680Z,12.38
2023-04-18T00:58:06.454Z,11.18
2023-04-18T01:00:33.407Z,12.38
2023-04-18T01:03:01.083Z,10.90
2023-04-18T01:05:28.334Z,8.70
2023-04-18T01:08:01.132Z,11.55
2023-04-18T01:10:29.275Z,10.38
2023-04-18T01:13:12.480Z,10.00
2023-04-18T01:15:44.261Z,10.88
2023-04-18T01:18:13.325Z,11.18
2023-04-18T01:20:43.815Z,12.23
2023-04-18T01:23:10.859Z,12.07
2023-04-18T01:25:39.115Z,10.85
2023-04-18T01:28:06.648Z,10.10
2023-04-18T01:30:34.755Z,12.05
2023-04-18T01:33:03.136Z,11.10
2023-04-18T01:35:30.705Z,11.13
2023-04-18T01:37:57.740Z,10.85
2023-04-18T01:40:24.885Z,10.55
2023-04-18T01:42:53.502Z,11.25
2023-04-18T01:45:20.714Z,11.60
2023-04-18T01:47:47.703Z,11.02
2023-04-18T01:50:14.818Z,10.80
2023-04-18T01:52:43.207Z,11.20
2023-04-18T01:55:10.487Z,11.57
2023-04-18T01:57:37.438Z,10.38
2023-04-18T02:00:06.669Z,10.35
2023-04-18T02:02:43.146Z,10.85
2023-04-18T02:05:10.929Z,11.60
2023-04-18T02:07:41.151Z,12.40
2023-04-18T02:10:10.548Z,11.75
2023-04-18T02:12:37.697Z,10.73
2023-04-18T02:15:05.355Z,11.00
2023-04-18T02:17:36.394Z,10.90
2023-04-18T02:20:04.027Z,10.50
2023-04-18T02:22:32.073Z,9.95
2023-04-18T02:25:00.817Z,10.63
2023-04-18T02:27:28.010Z,10.77
2023-04-18T02:29:57.307Z,10.43
2023-04-18T02:32:24.898Z,10.23
2023-04-18T02:34:51.889Z,10.43
2023-04-18T02:37:19.081Z,9.88
2023-04-18T02:39:46.049Z,10.27
2023-04-18T02:42:12.922Z,9.48
2023-04-18T02:44:39.875Z,9.30
2023-04-18T02:47:07.095Z,10.07
2023-04-18T02:49:36.716Z,8.82
2023-04-18T02:52:03.942Z,10.10
2023-04-18T02:54:31.096Z,10.77
2023-04-18T02:57:06.260Z,8.63
2023-04-18T02:59:57.723Z,11.05
2023-04-18T03:02:51.253Z,10.87
2023-04-18T03:05:32.197Z,11.20
2023-04-18T03:08:02.271Z,11.88
2023-04-18T03:10:29.835Z,9.73
2023-04-18T03:12:56.800Z,8.95
2023-04-18T03:15:23.965Z,9.18
2023-04-18T03:17:51.387Z,10.40
2023-04-18T03:20:20.976Z,9.75
2023-04-18T03:22:48.031Z,10.63
2023-04-18T03:25:18.919Z,9.98
2023-04-18T03:27:51.393Z,10.57
2023-04-18T03:30:20.814Z,10.02
2023-04-18T03:32:56.325Z,10.40
2023-04-18T03:35:23.673Z,10.07
2023-04-18T03:37:50.978Z,9.82
2023-04-18T03:40:25.161Z,13.40
2023-04-18T03:42:55.053Z,12.13
2023-04-18T03:45:22.034Z,12.00
2023-04-18T03:47:50.017Z,12.40
2023-04-18T03:50:17.684Z,13.27
2023-04-18T03:52:46.277Z,11.38
2023-04-18T03:55:15.792Z,10.63
2023-04-18T03:57:42.875Z,10.55
2023-04-18T04:00:15.819Z,11.70
2023-04-18T04:02:42.910Z,13.15
2023-04-18T04:05:15.763Z,9.65
2023-04-18T04:07:43.377Z,11.75
2023-04-18T04:10:10.972Z,12.38
2023-04-18T04:12:37.919Z,12.02
2023-04-18T04:15:05.605Z,10.43
2023-04-18T04:17:33.242Z,11.50
2023-04-18T04:20:00.244Z,10.73
2023-04-18T04:22:28.484Z,10.77
2023-04-18T04:24:57.862Z,11.35
2023-04-18T04:27:31.244Z,10.45
2023-04-18T04:29:58.196Z,13.13
2023-04-18T04:32:25.549Z,10.65
2023-04-18T04:34:53.712Z,11.45
2023-04-18T04:37:21.209Z,12.30
2023-04-18T04:40:00.716Z,11.90
2023-04-18T04:42:41.239Z,11.63
2023-04-18T04:45:15.386Z,11.02
2023-04-18T04:47:42.355Z,12.88
2023-04-18T04:50:14.841Z,12.27
2023-04-18T04:52:42.838Z,11.82
2023-04-18T04:55:10.163Z,14.32
2023-04-18T04:57:38.011Z,12.10
2023-04-18T05:00:21.043Z,11.80
2023-04-18T05:02:49.460Z,13.60
2023-04-18T05:05:16.727Z,14.43
2023-04-18T05:07:43.680Z,13.93
2023-04-18T05:10:11.026Z,12.20
2023-04-18T05:12:38.000Z,14.25
2023-04-18T05:15:05.567Z,13.93
2023-04-18T05:17:32.659Z,13.45
2023-04-18T05:19:59.586Z,15.10
2023-04-18T05:22:26.748Z,15.20
2023-04-18T05:24:53.772Z,14.63
2023-04-18T05:27:21.815Z,12.85
2023-04-18T05:29:50.344Z,14.80
2023-04-18T05:32:17.510Z,14.48
2023-04-18T05:34:44.557Z,12.65
2023-04-18T05:37:11.658Z,14.75
2023-04-18T05:39:38.834Z,12.50
2023-04-18T05:42:05.961Z,14.27
2023-04-18T05:44:33.094Z,15.07
2023-04-18T05:47:00.098Z,14.70
2023-04-18T05:49:27.081Z,16.27
2023-04-18T05:51:54.020Z,13.95
2023-04-18T05:54:25.234Z,12.95
2023-04-18T05:56:52.352Z,14.57
2023-04-18T05:59:20.712Z,13.80
2023-04-18T06:01:47.775Z,13.50
2023-04-18T06:04:16.581Z,13.48
2023-04-18T06:06:43.816Z,13.90
2023-04-18T06:09:11.294Z,13.18
2023-04-18T06:11:38.614Z,13.77
2023-04-18T06:14:05.738Z,13.32
2023-04-18T06:16:32.844Z,14.65
2023-04-18T06:19:01.344Z,14.45
2023-04-18T06:21:28.533Z,17.67
2023-04-18T06:23:55.739Z,16.20
2023-04-18T06:26:22.769Z,15.50
2023-04-18T06:28:49.809Z,15.20
2023-04-18T06:31:16.945Z,15.80
2023-04-18T06:33:44.081Z,14.88
2023-04-18T06:36:11.118Z,14.65
2023-04-18T06:38:38.166Z,13.25
2023-04-18T06:41:05.236Z,14.25
2023-04-18T06:43:32.229Z,14.35
2023-04-18T06:45:59.710Z,12.90
2023-04-18T06:48:26.756Z,12.88
2023-04-18T06:50:53.744Z,14.57
2023-04-18T06:53:21.106Z,11.73
2023-04-18T06:55:48.353Z,13.55
2023-04-18T06:58:16.926Z,12.65
2023-04-18T07:00:44.053Z,12.48
2023-04-18T07:03:13.689Z,11.90
2023-04-18T07:05:41.333Z,13.23
2023-04-18T07:08:14.082Z,12.48
2023-04-18T07:10:41.477Z,13.52
2023-04-18T07:13:08.646Z,11.65
2023-04-18T07:15:36.296Z,9.48
2023-04-18T07:18:03.709Z,11.48
2023-04-18T07:20:31.395Z,11.45
2023-04-18T07:22:58.405Z,12.45
2023-04-18T07:25:25.755Z,11.57
2023-04-18T07:27:52.853Z,10.68
2023-04-18T07:30:19.926Z,9.85
2023-04-18T07:32:56.049Z,10.57
2023-04-18T07:35:26.034Z,9.88
2023-04-18T07:37:54.243Z,10.85
2023-04-18T07:40:21.774Z,9.77
2023-04-18T07:42:48.906Z,9.25
2023-04-18T07:45:16.229Z,7.47
2023-04-18T07:47:43.366Z,8.55
2023-04-18T07:50:10.865Z,7.88
2023-04-18T07:52:39.314Z,9.20
2023-04-18T07:55:07.169Z,9.10
2023-04-18T07:57:34.405Z,9.20
2023-04-18T08:00:01.421Z,9.75
2023-04-18T08:02:39.930Z,9.50
2023-04-18T08:05:12.670Z,8.30
2023-04-18T08:07:39.759Z,8.82
2023-04-18T08:10:09.754Z,7.97
2023-04-18T08:12:36.896Z,8.70
2023-04-18T08:15:04.632Z,8.15
2023-04-18T08:17:33.369Z,8.20
2023-04-18T08:20:05.164Z,10.07
2023-04-18T08:22:32.162Z,9.75
2023-04-18T08:25:04.980Z,9.38
2023-04-18T08:27:32.750Z,9.40
2023-04-18T08:30:00.817Z,8.40
2023-04-18T08:32:27.973Z,9.07
2023-04-18T08:34:58.370Z,11.13
2023-04-18T08:37:25.620Z,9.68
2023-04-18T08:39:52.669Z,10.75
2023-04-18T08:42:19.927Z,9.38
2023-04-18T08:44:47.334Z,9.63
2023-04-18T08:47:16.192Z,10.65
2023-04-18T08:49:48.438Z,10.25
2023-04-18T08:52:24.139Z,10.25
2023-04-18T08:54:51.205Z,10.35
2023-04-18T08:57:27.443Z,10.43
2023-04-18T08:59:55.550Z,9.05
2023-04-18T09:02:35.294Z,8.98
2023-04-18T09:05:11.639Z,9.98
2023-04-18T09:07:38.837Z,9.73
2023-04-18T09:10:06.308Z,10.40
2023-04-18T09:12:34.627Z,11.52
2023-04-18T09:15:15.635Z,11.30
2023-04-18T09:17:51.064Z,10.50
2023-04-18T09:20:42.429Z,11.20
2023-04-18T09:23:11.721Z,11.02
2023-04-18T09:25:45.130Z,11.00
2023-04-18T09:28:30.724Z,11.55
2023-04-18T09:31:09.476Z,11.75
2023-04-18T09:33:37.157Z,10.82
2023-04-18T09:36:24.799Z,11.20
2023-04-18T09:38:56.311Z,9.85
2023-04-18T09:41:24.443Z,11.88
2023-04-18T09:44:12.372Z,12.00
2023-04-18T09:46:41.493Z,11.70
2023-04-18T09:49:10.421Z,12.73
2023-04-18T09:51:40.407Z,11.85
2023-04-18T09:54:09.731Z,11.77
2023-04-18T09:56:39.312Z,10.82
2023-04-18T09:59:10.623Z,12.07
2023-04-18T10:01:40.186Z,12.38
2023-04-18T10:04:08.238Z,11.30
2023-04-18T10:06:42.102Z,11.20
2023-04-18T10:09:10.334Z,11.70
2023-04-18T10:11:37.592Z,13.00
2023-04-18T10:14:12.904Z,11.00
2023-04-18T10:16:41.396Z,12.15
2023-04-18T10:19:26.197Z,13.75
2023-04-18T10:21:57.121Z,12.50
2023-04-18T10:24:59.515Z,12.95
2023-04-18T10:27:48.769Z,11.68
2023-04-18T10:30:16.943Z,12.23
2023-04-18T10:32:45.973Z,13.60
2023-04-18T10:35:13.239Z,13.50
2023-04-18T10:37:52.702Z,12.98
2023-04-18T10:40:46.018Z,10.90
2023-04-18T10:43:13.503Z,12.40
2023-04-18T10:45:43.493Z,11.63
2023-04-18T10:48:32.919Z,12.30
2023-04-18T10:51:20.734Z,10.93
2023-04-18T10:53:54.278Z,13.02
2023-04-18T10:56:24.424Z,11.48
2023-04-18T10:58:55.622Z,13.60
2023-04-18T11:01:32.464Z,12.20
2023-04-18T11:04:00.776Z,12.45
2023-04-18T11:06:28.626Z,12.45
2023-04-18T11:09:13.860Z,11.18
2023-04-18T11:11:41.878Z,12.10
2023-04-18T11:14:08.836Z,13.20
2023-04-18T11:16:36.149Z,12.82
2023-04-18T11:19:25.843Z,13.35
2023-04-18T11:21:53.067Z,13.73
2023-04-18T11:24:24.333Z,12.57
2023-04-18T11:26:56.180Z,14.10
2023-04-18T11:29:23.855Z,12.85
2023-04-18T11:31:55.287Z,10.75
2023-04-18T11:34:30.545Z,11.13
2023-04-18T11:36:59.627Z,10.50
2023-04-18T11:39:29.293Z,12.98
2023-04-18T11:41:57.718Z,10.88
2023-04-18T11:44:25.333Z,10.23
2023-04-18T11:46:55.917Z,12.98
2023-04-18T11:49:31.817Z,11.60
2023-04-18T11:52:00.050Z,14.05
2023-04-18T11:54:44.510Z,12.35
2023-04-18T11:57:26.655Z,12.43
2023-04-18T11:59:55.009Z,11.07
2023-04-18T12:02:26.772Z,11.48
2023-04-18T12:04:59.200Z,9.35
2023-04-18T12:07:37.245Z,10.20
2023-04-18T12:10:10.187Z,11.27
2023-04-18T12:12:37.190Z,9.98
2023-04-18T12:15:08.498Z,12.45
2023-04-18T12:17:37.551Z,12.18
2023-04-18T12:20:09.713Z,10.70
2023-04-18T12:22:42.074Z,10.30
2023-04-18T12:25:26.203Z,11.35
2023-04-18T12:27:58.369Z,10.98
2023-04-18T12:30:31.230Z,9.55
2023-04-18T12:33:04.118Z,11.27
2023-04-18T12:35:31.988Z,11.52
2023-04-18T12:38:01.538Z,11.55
2023-04-18T12:40:30.639Z,11.02
2023-04-18T12:42:57.658Z,11.82
2023-04-18T12:45:25.013Z,13.23
2023-04-18T12:47:52.834Z,11.13
2023-04-18T12:50:25.136Z,12.32
2023-04-18T12:52:54.248Z,11.07
2023-04-18T12:55:22.953Z,12.60
2023-04-18T12:57:52.433Z,12.05
2023-04-18T13:00:19.494Z,12.55
2023-04-18T13:02:46.597Z,11.10
2023-04-18T13:05:15.415Z,11.93
2023-04-18T13:07:43.392Z,11.32
2023-04-18T13:10:12.958Z,12.23
2023-04-18T13:12:41.262Z,11.32
2023-04-18T13:15:11.961Z,12.65
2023-04-18T13:17:39.939Z,11.32
2023-04-18T13:20:10.863Z,10.52
2023-04-18T13:22:38.861Z,9.82
2023-04-18T13:25:08.270Z,11.25
2023-04-18T13:27:35.221Z,10.82
2023-04-18T13:30:02.656Z,10.60
2023-04-18T13:32:30.549Z,10.27
2023-04-18T13:34:57.619Z,11.05
2023-04-18T13:37:24.645Z,9.82
2023-04-18T13:39:51.683Z,10.75
2023-04-18T13:42:19.512Z,9.43
2023-04-18T13:44:47.649Z,11.85
2023-04-18T13:47:14.696Z,11.18
2023-04-18T13:49:41.856Z,9.95
2023-04-18T13:52:09.226Z,10.38
2023-04-18T13:54:37.715Z,10.57
2023-04-18T13:57:11.705Z,8.73
2023-04-18T13:59:42.614Z,9.20
2023-04-18T14:02:10.194Z,9.77
2023-04-18T14:04:38.159Z,10.52
2023-04-18T14:07:06.426Z,9.23
2023-04-18T14:09:33.730Z,11.20
2023-04-18T14:12:00.679Z,10.73
2023-04-18T14:14:29.380Z,9.85
2023-04-18T14:16:56.641Z,9.38
2023-04-18T14:19:24.077Z,10.95
2023-04-18T14:21:51.131Z,10.57
2023-04-18T14:24:18.218Z,12.30
2023-04-18T14:26:45.284Z,10.70
2023-04-18T14:29:12.630Z,10.65
2023-04-18T14:31:39.994Z,10.82
2023-04-18T14:34:08.521Z,9.88
2023-04-18T14:36:36.025Z,8.27
2023-04-18T14:39:03.629Z,9.93
2023-04-18T14:41:30.576Z,10.65
2023-04-18T14:43:57.653Z,10.60
2023-04-18T14:46:24.660Z,9.93
2023-04-18T14:48:51.586Z,10.80
2023-04-18T14:51:21.434Z,10.43
2023-04-18T14:53:49.570Z,10.30
2023-04-18T14:56:21.025Z,8.80
2023-04-18T14:58:48.332Z,10.05
2023-04-18T15:01:15.712Z,10.27
2023-04-18T15:03:42.880Z,9.32
2023-04-18T15:06:10.025Z,10.02
2023-04-18T15:08:37.205Z,10.18
2023-04-18T15:11:08.277Z,9.25
2023-04-18T15:13:35.802Z,11.23
2023-04-18T15:16:03.556Z,10.02
2023-04-18T15:18:30.806Z,10.55
2023-04-18T15:20:59.975Z,10.18
2023-04-18T15:23:27.675Z,10.73
2023-04-18T15:25:54.856Z,9.77
2023-04-18T15:28:21.982Z,9.85
2023-04-18T15:30:48.923Z,9.05
2023-04-18T15:33:17.538Z,10.02
2023-04-18T15:35:45.236Z,8.15
2023-04-18T15:38:12.320Z,8.55
2023-04-18T15:40:39.420Z,10.25
2023-04-18T15:43:06.590Z,8.60
2023-04-18T15:45:33.610Z,9.82
2023-04-18T15:48:00.737Z,9.20
2023-04-18T15:50:27.885Z,8.48
2023-04-18T15:52:56.455Z,9.45
2023-04-18T15:55:24.708Z,9.75
2023-04-18T15:57:51.794Z,8.80
2023-04-18T16:00:19.843Z,9.00
2023-04-18T16:02:47.397Z,8.23
2023-04-18T16:05:15.487Z,7.63
2023-04-18T16:07:42.831Z,9.18
2023-04-18T16:10:11.293Z,9.45
2023-04-18T16:12:39.757Z,8.38
2023-04-18T16:15:08.765Z,7.95
2023-04-18T16:17:37.751Z,9.05
2023-04-18T16:20:09.696Z,9.00
2023-04-18T16:22:37.924Z,8.18
2023-04-18T16:25:06.681Z,11.02
2023-04-18T16:27:33.684Z,9.50
2023-04-18T16:30:01.268Z,8.88
2023-04-18T16:32:30.645Z,8.15
2023-04-18T16:34:57.977Z,9.25
2023-04-18T16:37:24.968Z,11.02
2023-04-18T16:39:51.894Z,8.25
2023-04-18T16:42:19.071Z,7.57
2023-04-18T16:44:47.409Z,7.50
2023-04-18T16:47:14.454Z,7.63
2023-04-18T16:49:41.754Z,7.43
2023-04-18T16:52:08.686Z,7.97
2023-04-18T16:54:36.464Z,7.03
2023-04-18T16:57:05.445Z,6.82
2023-04-18T16:59:32.555Z,7.80
2023-04-18T17:01:59.868Z,8.80
2023-04-18T17:04:27.400Z,8.07
2023-04-18T17:06:54.736Z,9.20
2023-04-18T17:09:21.958Z,8.98
2023-04-18T17:11:49.317Z,9.10
2023-04-18T17:14:17.558Z,7.78
2023-04-18T17:16:44.904Z,9.52
2023-04-18T17:19:12.295Z,7.03
2023-04-18T17:21:39.419Z,8.10
2023-04-18T17:24:07.206Z,7.00
2023-04-18T17:26:35.854Z,7.43
2023-04-18T17:29:06.457Z,8.00
2023-04-18T17:31:34.411Z,7.07
2023-04-18T17:34:01.659Z,7.82
2023-04-18T17:36:28.765Z,6.93
2023-04-18T17:38:56.481Z,7.63
2023-04-18T17:41:23.438Z,7.72
2023-04-18T17:43:53.484Z,8.02
2023-04-18T17:46:21.189Z,6.90
2023-04-18T17:48:49.466Z,6.60
2023-04-18T17:51:16.651Z,7.45
2023-04-18T17:53:43.760Z,6.85
2023-04-18T17:56:10.941Z,8.05
2023-04-18T17:58:37.947Z,8.50
2023-04-18T18:01:17.403Z,8.00
2023-04-18T18:03:45.109Z,7.10
2023-04-18T18:06:13.385Z,7.10
2023-04-18T18:08:42.703Z,6.55
2023-04-18T18:11:10.950Z,7.38
2023-04-18T18:13:39.305Z,6.85
2023-04-18T18:16:07.435Z,6.28
2023-04-18T18:18:34.919Z,7.68
2023-04-18T18:21:02.111Z,7.03
2023-04-18T18:23:29.346Z,8.73
2023-04-18T18:25:57.079Z,6.93
2023-04-18T18:28:24.211Z,8.90
2023-04-18T18:30:51.301Z,8.57
2023-04-18T18:33:19.115Z,6.68
2023-04-18T18:35:47.211Z,6.57
2023-04-18T18:38:14.411Z,7.15
2023-04-18T18:40:41.690Z,7.00
2023-04-18T18:43:09.012Z,10.15
2023-04-18T18:45:36.020Z,8.18
2023-04-18T18:48:04.677Z,8.15
2023-04-18T18:50:32.066Z,8.15
2023-04-18T18:53:01.910Z,6.97
2023-04-18T18:55:30.047Z,6.40
2023-04-18T18:57:57.175Z,6.55
2023-04-18T19:00:24.903Z,7.95
2023-04-18T19:02:52.283Z,7.15
2023-04-18T19:05:19.636Z,7.50
2023-04-18T19:07:46.786Z,7.38
2023-04-18T19:10:13.929Z,6.80
2023-04-18T19:12:40.903Z,6.72
2023-04-18T19:15:08.546Z,7.05
2023-04-18T19:17:35.988Z,8.18
2023-04-18T19:20:03.450Z,7.53
2023-04-18T19:22:31.257Z,6.05
2023-04-18T19:25:00.484Z,7.35
2023-04-18T19:27:27.465Z,7.30
2023-04-18T19:29:54.414Z,6.80
2023-04-18T19:32:21.993Z,6.22
2023-04-18T19:34:49.096Z,5.90
2023-04-18T19:37:16.292Z,6.15
2023-04-18T19:39:43.310Z,5.63
2023-04-18T19:42:10.472Z,5.97
2023-04-18T19:44:37.436Z,6.10
2023-04-18T19:47:04.680Z,6.10
2023-04-18T19:49:31.688Z,5.70
2023-04-18T19:51:58.796Z,5.82
2023-04-18T19:54:26.016Z,6.00
2023-04-18T19:56:53.040Z,7.05
2023-04-18T19:59:20.042Z,6.15
2023-04-18T20:01:47.698Z,6.30
2023-04-18T20:04:14.903Z,7.03
2023-04-18T20:06:42.773Z,6.05
2023-04-18T20:09:15.421Z,5.07
2023-04-18T20:11:43.564Z,5.78
2023-04-18T20:14:11.035Z,6.47
2023-04-18T20:16:39.190Z,6.95
2023-04-18T20:19:06.228Z,6.65
2023-04-18T20:21:33.205Z,7.28
2023-04-18T20:24:00.290Z,5.93
2023-04-18T20:26:27.349Z,6.47
2023-04-18T20:28:54.531Z,6.43
2023-04-18T20:31:21.865Z,6.22
2023-04-18T20:33:48.874Z,5.30
2023-04-18T20:36:17.841Z,6.22
2023-04-18T20:38:44.958Z,6.65
2023-04-18T20:41:18.265Z,6.35
2023-04-18T20:43:46.973Z,6.63
2023-04-18T20:46:14.368Z,5.82
2023-04-18T20:48:41.770Z,5.22
2023-04-18T20:51:09.223Z,5.97
2023-04-18T20:53:36.270Z,5.93
2023-04-18T20:56:03.314Z,5.32
2023-04-18T20:58:30.402Z,6.00
2023-04-18T21:00:57.729Z,6.13
2023-04-18T21:03:25.269Z,6.57
2023-04-18T21:05:52.858Z,7.20
2023-04-18T21:08:19.950Z,6.47
2023-04-18T21:10:46.950Z,5.78
2023-04-18T21:13:14.160Z,6.65
2023-04-18T21:15:42.350Z,5.63
2023-04-18T21:18:09.541Z,5.80
2023-04-18T21:20:37.025Z,6.50
2023-04-18T21:23:04.072Z,5.50
2023-04-18T21:25:31.371Z,6.65
2023-04-18T21:27:58.690Z,7.13
2023-04-18T21:30:25.962Z,6.57
2023-04-18T21:32:53.080Z,5.93
2023-04-18T21:35:22.019Z,6.47
2023-04-18T21:37:51.371Z,6.30
2023-04-18T21:40:18.493Z,6.43
2023-04-18T21:42:46.186Z,6.22
2023-04-18T21:45:13.888Z,6.40
2023-04-18T21:47:41.102Z,6.38
2023-04-18T21:50:09.461Z,6.90
2023-04-18T21:52:37.534Z,7.22
2023-04-18T21:55:05.147Z,6.97
2023-04-18T21:57:32.349Z,6.82
2023-04-18T21:59:59.329Z,6.45
2023-04-18T22:02:27.274Z,7.30
2023-04-18T22:04:54.681Z,6.45
2023-04-18T22:07:21.631Z,6.05
2023-04-18T22:09:48.839Z,6.75
2023-04-18T22:12:15.953Z,7.35
2023-04-18T22:14:48.367Z,6.80
2023-04-18T22:17:15.577Z,7.65
2023-04-18T22:19:44.582Z,6.45
2023-04-18T22:22:11.779Z,7.97
2023-04-18T22:24:38.775Z,7.15
2023-04-18T22:27:06.003Z,7.22
2023-04-18T22:29:33.245Z,7.55
2023-04-18T22:32:00.336Z,8.05
2023-04-18T22:34:27.362Z,7.55
2023-04-18T22:36:54.544Z,7.63
2023-04-18T22:39:21.522Z,7.30
2023-04-18T22:41:48.463Z,7.18
2023-04-18T22:44:15.764Z,6.60
2023-04-18T22:46:43.158Z,8.13
2023-04-18T22:49:10.259Z,8.32
2023-04-18T22:51:38.342Z,7.07
2023-04-18T22:54:05.593Z,7.40
2023-04-18T22:56:32.555Z,7.35
2023-04-18T22:58:59.802Z,8.75
2023-04-18T23:01:26.834Z,7.00
2023-04-18T23:03:53.919Z,7.82
2023-04-18T23:06:21.139Z,7.80
2023-04-18T23:08:48.226Z,7.15
2023-04-18T23:11:15.918Z,6.68
2023-04-18T23:13:42.924Z,7.32
2023-04-18T23:16:09.865Z,7.25
2023-04-18T23:18:36.936Z,7.20
2023-04-18T23:21:04.199Z,6.75
2023-04-18T23:23:31.292Z,7.30
2023-04-18T23:25:58.388Z,7.25
2023-04-18T23:28:25.680Z,6.72
2023-04-18T23:30:52.819Z,6.65
2023-04-18T23:33:19.818Z,5.82
2023-04-18T23:35:46.695Z,7.13
2023-04-18T23:38:13.650Z,6.82
2023-04-18T23:40:41.039Z,7.35
2023-04-18T23:43:08.129Z,6.25
2023-04-18T23:45:36.082Z,6.43
2023-04-18T23:48:03.340Z,6.00
2023-04-18T23:50:30.505Z,6.93
2023-04-18T23:52:57.633Z,6.63
2023-04-18T23:55:24.846Z,5.95
2023-04-18T23:57:51.927Z,5.43
